Record high temperature 59.9°C Record low temperature -15.7°C Record high gust 149.3 m/s Record high average 15.4 m/s Record daily rain 56.0 mm Record low windchill -19.3°C Record high barometer 1050.0 hPa Record low barometer 0.0 hPa
Daily high pressure 1021.6 hPa Daily low pressure 1006.9 hPa Daily low windchill -0.8°C Daily high heat index 4.1°C Daily high gust speed 10.4 m/s W Daily high average speed 2.9 m/s S
Vang veij Bornholm
LETZTE AKTUALISIERUNG UM: 14:15 DATUM: 12 Dezember 2018, time of next update: 14:16
Aktuelles WetterTrocken Aktuelle Temperatur 3.5°C (38.3°F), Apparent temp 1.7°C
Höchsttemperatur (seit Mitternacht)4.1°C um: 00:12 Tiefsttemperatur (seit Mitternacht)1.7°C um: 13:01
Windgeschwindigkeit (10 Minuten )1.4 m/s Windrichtung (Dir) (10 Minuten )NE (47°)
Windchill Temperatur 1.9°C Windspitzen (letzte Std)5.5 m/s um: 13:29
Windspitzen (seit Mitternacht)10.4 m/s um: 14:03 Höchstes Windmittel / Minute (seit Mitternacht)2.9 m/s um: 13:01
Regenmenge (letzte Std)0.7 mm Regenmenge (seit Mitternacht)3.5 mm (0.14 in.) at 13:19
Regenmenge diesen Monat 4.2 mm (0.17 in.) Regenmenge seit Jahresbeginn 31.0 mm (1.22 in.)
Höchste Regenmenge pro Minute (letzte Std)0.7 mm/min Höchste Regenmenge pro Stunde (letzte 6 Std)2.8 mm/stunde
Regenmenge Gestern 0.0 mm Taupunkt 3.4°C (Wet Bulb :3.4°C )
Luftfeuchtigkeit 99 %, Humidex 2.3°C Aktueller Luftdruck (auf Meereshöhe bezogen)1021.6 hPa
Luftdrucktendenz +0.3 hPa (letzte Std) Trend (letzte 1 Std)gleichbleibend
Luftdrucktendenz (letzte 12 Std)+5.5 hPa Luftdrucktendenz (letzte 6 Std)+2.8 hPa
Current Innentemp. 11.8°C
Current Innenfeuchte 69%



Weather report/Warning/Metars

Koebenhavn / Kastrup, Denmark (EKCH) 55-37N 012-39E 5M
Nov 04, 2018 - 06:20 AM EST / 2018.11.04 1120 UTC
Wind: from the SE (130 degrees) at 14 MPH (12 KT):0
Visibility: greater than 7 mile(s):0
Sky conditions: mostly cloudy
Temperature: 50 F (10 C)
Dew Point: 46 F (8 C)
Relative Humidity: 87%
Pressure (altimeter): 30.21 in. Hg (1023 hPa)
ob: EKCH 041120Z 13012KT 9999 FEW025 BKN070 10/08 Q1023 NOSIG
cycle: 11
Maribo Lufthavn, Denmark (EKMB) 54-42N 011-27E 5M
Jan 29, 2018 - 08:23 AM EST / 2018.01.29 1323 UTC
Wind: from the WSW (250 degrees) at 20 MPH (17 KT):0
Visibility: 4 mile(s):0
Sky conditions: mostly cloudy
Weather: light snow
Temperature: 44 F (7 C)
Dew Point: 42 F (6 C)
Relative Humidity: 93%
Pressure (altimeter): 29.83 in. Hg (1010 hPa)
ob: EKMB 291323Z 25017KT 8000 -SN BKN008 07/06 Q1010
cycle: 13
Odense / Beldringe, Denmark (EKOD) 55-29N 010-20E 17M
Nov 04, 2018 - 05:50 AM EST / 2018.11.04 1050 UTC
Wind: from the ESE (110 degrees) at 8 MPH (7 KT):0
Visibility: greater than 7 mile(s):0
Sky conditions: mostly cloudy
Temperature: 48 F (9 C)
Dew Point: 46 F (8 C)
Relative Humidity: 93%
Pressure (altimeter): 30.15 in. Hg (1021 hPa)
ob: EKOD 041050Z 11007KT 9999 FEW038 BKN047 09/08 Q1021
cycle: 11
Koebenhavn / Roskilde, Denmark (EKRK) 55-35N 012-08E 44M
Nov 04, 2018 - 06:20 AM EST / 2018.11.04 1120 UTC
Wind: from the ESE (120 degrees) at 16 MPH (14 KT):0
Visibility: greater than 7 mile(s):0
Sky conditions: mostly cloudy
Temperature: 50 F (10 C)
Dew Point: 46 F (8 C)
Relative Humidity: 87%
Pressure (altimeter): 30.18 in. Hg (1022 hPa)
ob: EKRK 041120Z 12014KT 9999 FEW012 BKN060 10/08 Q1022
cycle: 11



Die Wetterdaten werden alle 2 Minuten gespeichert, aber die Datenübertragung findet jede Minute statt. Die beste Ansicht wird in einer Auflösung von 800 x 600 und "True colour" erzielt. Linie zeigt die relative Luftfeuchtigkeit an.

Drücken Sie bitte auf "Aktualisieren" in Ihrem Browser, um die aktuellsten Daten zu erhalten.

Klicken Sie hier, um eine Übersicht der Durchschnitts- u. Extremwerte für den Monat zu erhalten








Created by "Weather Display" software version 10.37R Build 81 at this start time/date 13:00 12-12-18